Time;durP1;ratioP1;P1;durP2;ratioP2;P2;SDS_P1;SDS_P2;PMS_P1;PMS_P2;Temp;Humidity;BMP_temperature;BMP_pressure;BME280_temperature;BME280_humidity;BME280_pressure;Samples;Min_cycle;Max_cycle;Signal;HPM_P1;HPM_P2
2024/04/04 00:01:01;;;;;;;2.33;1.10;;;14.70;99.90;;;;;;5062716;28;20577;-64
2024/04/04 00:03:28;;;;;;;2.17;1.10;;;14.70;99.90;;;;;;5065677;28;20588;-64
2024/04/04 00:05:55;;;;;;;4.37;1.20;;;14.70;99.90;;;;;;5066330;28;20263;-64
2024/04/04 00:08:20;;;;;;;2.70;0.93;;;14.70;99.90;;;;;;5064096;28;20637;-65
2024/04/04 00:10:50;;;;;;;4.07;1.00;;;14.70;99.90;;;;;;5062734;28;20228;-64
2024/04/04 00:13:16;;;;;;;1.77;0.80;;;14.70;99.90;;;;;;5063647;28;20638;-65
2024/04/04 00:15:42;;;;;;;2.47;0.80;;;14.80;99.90;;;;;;5066252;28;20204;-65
2024/04/04 00:18:08;;;;;;;2.13;0.77;;;14.80;99.90;;;;;;5065415;28;20274;-64
2024/04/04 00:20:38;;;;;;;4.30;1.13;;;14.70;99.90;;;;;;5062355;28;20632;-65
2024/04/04 00:23:04;;;;;;;2.07;0.90;;;14.50;99.90;;;;;;5062514;28;20202;-64
2024/04/04 00:25:31;;;;;;;2.20;1.10;;;14.30;99.90;;;;;;5065288;28;20717;-65
2024/04/04 00:27:59;;;;;;;2.27;0.80;;;14.30;99.90;;;;;;5065682;28;20213;-65
2024/04/04 00:30:25;;;;;;;1.97;0.87;;;14.30;99.90;;;;;;5063092;28;20225;-65
2024/04/04 00:32:53;;;;;;;2.53;1.00;;;14.30;99.90;;;;;;5062082;28;20698;-65
2024/04/04 00:35:20;;;;;;;1.70;0.80;;;14.30;99.90;;;;;;5063562;28;20202;-65
2024/04/04 00:37:47;;;;;;;1.90;0.80;;;14.50;99.90;;;;;;5065197;28;20207;-64
2024/04/04 00:40:14;;;;;;;2.20;1.07;;;14.50;99.90;;;;;;5064642;28;20224;-64
2024/04/04 00:42:40;;;;;;;1.93;0.90;;;14.60;99.90;;;;;;5062024;28;20209;-65
2024/04/04 00:45:08;;;;;;;3.27;0.80;;;14.70;99.90;;;;;;5061929;28;20252;-64
2024/04/04 00:47:34;;;;;;;2.77;0.73;;;14.70;99.90;;;;;;5061747;28;20671;-65
2024/04/04 00:50:01;;;;;;;1.90;0.70;;;14.70;99.90;;;;;;5061751;28;20248;-65
2024/04/04 00:52:27;;;;;;;3.77;1.20;;;14.70;99.90;;;;;;5064337;28;20213;-65
2024/04/04 00:54:55;;;;;;;3.33;1.33;;;14.70;99.90;;;;;;5065344;28;20204;-65
2024/04/04 00:57:21;;;;;;;2.67;1.10;;;14.80;99.90;;;;;;5062968;28;20212;-64
2024/04/04 00:59:48;;;;;;;2.10;1.00;;;14.80;99.90;;;;;;5061710;28;20613;-65
2024/04/04 01:02:16;;;;;;;2.83;1.10;;;14.80;99.90;;;;;;5062505;28;20256;-64
2024/04/04 01:04:44;;;;;;;3.07;1.20;;;14.80;99.90;;;;;;5064705;28;20288;-64
2024/04/04 01:07:11;;;;;;;3.53;1.10;;;14.70;99.90;;;;;;5064802;28;20258;-65
2024/04/04 01:09:38;;;;;;;2.20;1.00;;;14.70;99.90;;;;;;5061152;28;20722;-65
2024/04/04 01:12:05;;;;;;;2.53;1.07;;;14.60;99.90;;;;;;5061372;28;20213;-65
2024/04/04 01:14:31;;;;;;;3.47;1.17;;;14.50;99.90;;;;;;5064196;28;20580;-65
2024/04/04 01:16:57;;;;;;;3.67;1.13;;;14.40;99.90;;;;;;5064718;28;20216;-64
2024/04/04 01:19:25;;;;;;;6.77;1.17;;;14.30;99.90;;;;;;5062244;28;20229;-65
2024/04/04 01:21:51;;;;;;;2.23;1.00;;;14.20;99.90;;;;;;5061472;28;20210;-65
2024/04/04 01:24:19;;;;;;;3.17;1.20;;;14.10;99.90;;;;;;5061321;28;20207;-65
2024/04/04 01:26:44;;;;;;;5.57;1.10;;;13.80;99.90;;;;;;5064559;28;20205;-65
2024/04/04 01:29:11;;;;;;;1.97;1.00;;;13.70;99.90;;;;;;5063853;28;20216;-64
2024/04/04 01:31:37;;;;;;;4.57;1.40;;;13.60;99.90;;;;;;5061120;28;20209;-64
2024/04/04 01:34:04;;;;;;;2.23;1.27;;;13.50;99.90;;;;;;5060959;28;20259;-66
2024/04/04 01:36:29;;;;;;;3.30;1.23;;;13.30;99.90;;;;;;5065821;28;20205;-64
2024/04/04 01:38:56;;;;;;;2.33;1.13;;;13.20;99.90;;;;;;5064541;28;20228;-64
2024/04/04 01:41:24;;;;;;;3.67;1.23;;;13.20;99.90;;;;;;5062454;28;20607;-64
2024/04/04 01:43:50;;;;;;;3.53;1.37;;;13.10;99.90;;;;;;5061075;28;20255;-64
2024/04/04 01:46:17;;;;;;;3.40;1.10;;;13.20;99.90;;;;;;5061878;28;20233;-62
2024/04/04 01:48:42;;;;;;;1.97;1.00;;;13.20;99.90;;;;;;5063612;28;20208;-64
2024/04/04 01:51:09;;;;;;;2.17;1.07;;;13.20;99.90;;;;;;5064286;28;20247;-64
2024/04/04 01:53:36;;;;;;;3.53;1.30;;;13.20;99.90;;;;;;5060568;28;20201;-64
2024/04/04 01:56:03;;;;;;;5.50;1.00;;;13.20;99.90;;;;;;5060686;28;20201;-63
2024/04/04 01:58:30;;;;;;;5.00;1.20;;;13.30;99.90;;;;;;5062885;28;20228;-64
2024/04/04 02:00:57;;;;;;;2.53;1.10;;;13.40;99.90;;;;;;5063832;28;20213;-64
2024/04/04 02:03:23;;;;;;;5.97;1.30;;;13.60;99.90;;;;;;5061787;28;20238;-64
2024/04/04 02:05:49;;;;;;;2.13;0.97;;;13.60;99.90;;;;;;5060436;28;20217;-63
2024/04/04 02:08:15;;;;;;;2.40;1.00;;;13.70;99.90;;;;;;5061013;28;20283;-64
2024/04/04 02:10:42;;;;;;;3.30;1.07;;;13.80;99.90;;;;;;5063679;28;20617;-63
2024/04/04 02:13:08;;;;;;;2.67;1.00;;;13.90;99.90;;;;;;5063694;28;20212;-64
2024/04/04 02:15:40;;;;;;;3.50;1.10;;;14.00;99.90;;;;;;5060153;28;20613;-64
2024/04/04 02:18:06;;;;;;;2.93;0.90;;;14.00;99.90;;;;;;5060206;28;20205;-64
2024/04/04 02:20:33;;;;;;;2.10;0.70;;;14.00;99.90;;;;;;5063428;28;20216;-64
2024/04/04 02:22:59;;;;;;;3.10;1.00;;;14.00;99.90;;;;;;5063643;28;20634;-64
2024/04/04 02:25:26;;;;;;;3.07;1.10;;;13.90;99.90;;;;;;5061360;28;20227;-65
2024/04/04 02:27:51;;;;;;;2.07;0.77;;;14.00;99.90;;;;;;5059965;28;20209;-65
2024/04/04 02:30:18;;;;;;;2.43;0.60;;;14.00;99.90;;;;;;5060776;28;20271;-63
2024/04/04 02:32:46;;;;;;;2.50;0.80;;;14.00;99.90;;;;;;5063628;28;20205;-63
2024/04/04 02:35:14;;;;;;;1.87;0.83;;;14.00;99.90;;;;;;5062820;28;20584;-65
2024/04/04 02:37:39;;;;;;;2.27;1.00;;;14.10;99.90;;;;;;5059931;28;20216;-64
2024/04/04 02:40:08;;;;;;;1.37;0.83;;;14.10;99.90;;;;;;5059911;28;20225;-64
2024/04/04 02:42:35;;;;;;;1.90;0.87;;;14.20;99.90;;;;;;5059961;28;20293;-64
2024/04/04 02:45:02;;;;;;;1.97;0.70;;;14.20;99.90;;;;;;5060206;28;20256;-65
2024/04/04 02:47:29;;;;;;;2.67;1.00;;;14.20;99.90;;;;;;5062598;28;20251;-64
2024/04/04 02:49:57;;;;;;;3.70;0.90;;;14.20;99.90;;;;;;5063591;28;20235;-64
2024/04/04 02:52:23;;;;;;;4.17;0.80;;;14.20;99.90;;;;;;5061748;28;20221;-64
2024/04/04 02:54:51;;;;;;;1.87;1.00;;;14.10;99.90;;;;;;5060258;28;20223;-64
2024/04/04 02:57:17;;;;;;;2.63;0.93;;;14.10;99.90;;;;;;5060719;28;20679;-64
2024/04/04 02:59:44;;;;;;;1.73;0.70;;;14.10;99.90;;;;;;5063361;28;20216;-64
2024/04/04 03:02:09;;;;;;;3.40;0.90;;;14.10;99.90;;;;;;5063242;28;20205;-64
2024/04/04 03:04:37;;;;;;;3.03;1.30;;;14.20;99.90;;;;;;5059750;28;20193;-65
2024/04/04 03:07:05;;;;;;;3.57;0.90;;;14.20;99.90;;;;;;5059846;28;20237;-65
2024/04/04 03:09:32;;;;;;;2.00;0.87;;;14.20;99.90;;;;;;5061760;28;20612;-65
2024/04/04 03:11:57;;;;;;;1.87;0.97;;;14.20;99.90;;;;;;5062937;28;20240;-64
2024/04/04 03:14:24;;;;;;;25.80;22.90;;;14.30;99.90;;;;;;5061600;28;20733;-66
2024/04/04 03:16:50;;;;;;;3.57;2.50;;;14.20;99.90;;;;;;5059573;28;20206;-63
2024/04/04 03:19:17;;;;;;;4.10;1.00;;;14.30;99.90;;;;;;5060040;28;20221;-63
2024/04/04 03:21:43;;;;;;;1.93;0.80;;;14.40;99.90;;;;;;5062960;28;20209;-64
2024/04/04 03:24:11;;;;;;;1.60;0.70;;;14.30;99.90;;;;;;5062868;28;20230;-64
2024/04/04 03:26:37;;;;;;;1.93;1.20;;;14.40;99.90;;;;;;5059365;28;20228;-65
2024/04/04 03:29:04;;;;;;;5.07;2.70;;;14.40;99.90;;;;;;5059323;28;20221;-65
2024/04/04 03:31:29;;;;;;;5.47;2.00;;;14.40;99.90;;;;;;5062154;28;20210;-65
2024/04/04 03:33:56;;;;;;;4.00;2.07;;;14.30;99.90;;;;;;5062936;28;20258;-65
2024/04/04 03:36:22;;;;;;;5.50;1.50;;;14.30;99.90;;;;;;5061463;28;20251;-63
2024/04/04 03:38:48;;;;;;;2.43;1.20;;;14.40;99.90;;;;;;5058986;28;20197;-64
2024/04/04 03:41:16;;;;;;;1.47;0.73;;;14.40;99.90;;;;;;5059539;28;20681;-63
2024/04/04 03:43:44;;;;;;;1.20;0.80;;;14.40;99.90;;;;;;5062848;28;20209;-64
2024/04/04 03:46:11;;;;;;;2.63;0.90;;;14.40;99.90;;;;;;5062724;28;20225;-65
2024/04/04 03:48:38;;;;;;;3.03;1.80;;;14.50;99.90;;;;;;5060931;28;20206;-64
2024/04/04 03:51:04;;;;;;;3.17;1.00;;;14.40;99.90;;;;;;5063399;28;20241;-62
2024/04/04 03:53:30;;;;;;;1.43;1.03;;;14.50;99.90;;;;;;5065111;28;20638;-63
2024/04/04 03:55:56;;;;;;;3.20;1.70;;;14.50;99.90;;;;;;5066532;28;20205;-62
2024/04/04 03:58:24;;;;;;;2.50;0.83;;;14.50;99.90;;;;;;5064738;28;20200;-62
2024/04/04 04:00:50;;;;;;;1.57;1.00;;;14.50;99.90;;;;;;5063005;28;20225;-62
2024/04/04 04:03:18;;;;;;;1.52;0.88;;;14.60;99.90;;;;;;5063158;28;20208;-62
2024/04/04 04:05:44;;;;;;;2.00;0.77;;;14.50;99.90;;;;;;5066101;28;20706;-63
2024/04/04 04:08:11;;;;;;;0.80;0.57;;;14.50;99.90;;;;;;5065581;28;20240;-62
2024/04/04 04:10:37;;;;;;;3.45;0.82;;;14.50;99.90;;;;;;5062380;28;20742;-63
2024/04/04 04:13:04;;;;;;;2.33;1.10;;;14.40;99.90;;;;;;5062520;28;20202;-62
2024/04/04 04:15:31;;;;;;;1.80;0.87;;;14.40;99.90;;;;;;5064605;28;20259;-62
2024/04/04 04:17:58;;;;;;;1.90;1.13;;;14.40;99.90;;;;;;5065595;28;20690;-63
2024/04/04 04:23:09;;;;;;;1.27;0.70;;;14.40;99.90;;;;;;5062438;28;20215;-63
2024/04/04 04:25:35;;;;;;;1.83;1.27;;;14.20;99.90;;;;;;5065217;28;20220;-63
2024/04/04 04:28:01;;;;;;;4.03;1.33;;;14.20;99.90;;;;;;5065588;28;20197;-63
2024/04/04 04:30:27;;;;;;;3.17;1.90;;;14.20;99.90;;;;;;5063638;28;20290;-64
2024/04/04 04:32:55;;;;;;;2.30;1.40;;;14.20;99.90;;;;;;5062526;28;20206;-62
2024/04/04 04:35:22;;;;;;;1.97;1.20;;;14.20;99.90;;;;;;5062841;28;20278;-63
2024/04/04 04:37:49;;;;;;;2.27;1.13;;;14.10;99.90;;;;;;5065487;28;20292;-63
2024/04/04 04:40:15;;;;;;;2.07;1.50;;;14.00;99.90;;;;;;5065419;28;20224;-63
2024/04/04 04:42:41;;;;;;;3.23;1.00;;;14.00;99.90;;;;;;5062139;28;20247;-62
2024/04/04 04:45:08;;;;;;;2.90;1.30;;;13.90;99.90;;;;;;5062046;28;20222;-64
2024/04/04 04:47:35;;;;;;;3.67;1.40;;;13.80;99.90;;;;;;5064104;28;20205;-63
2024/04/04 04:50:02;;;;;;;2.40;1.10;;;13.80;99.90;;;;;;5064912;28;20756;-63
2024/04/04 04:52:29;;;;;;;3.30;1.00;;;13.80;99.90;;;;;;5063260;28;20224;-62
2024/04/04 04:54:55;;;;;;;1.83;0.80;;;13.70;99.90;;;;;;5061891;28;20213;-62
2024/04/04 04:57:21;;;;;;;0.97;0.67;;;13.70;99.90;;;;;;5062557;28;20202;-62
2024/04/04 04:59:47;;;;;;;2.77;0.90;;;13.60;99.90;;;;;;5064681;28;20757;-62
2024/04/04 05:02:16;;;;;;;1.67;1.00;;;13.50;99.90;;;;;;5064986;28;20197;-62
2024/04/04 05:04:42;;;;;;;1.20;0.70;;;13.50;99.90;;;;;;5061658;28;20649;-62
2024/04/04 05:07:10;;;;;;;2.10;0.90;;;13.40;99.90;;;;;;5061631;28;20316;-64
2024/04/04 05:09:36;;;;;;;2.40;0.70;;;13.40;99.90;;;;;;5064422;28;20224;-64
2024/04/04 05:12:03;;;;;;;2.60;0.73;;;13.40;99.90;;;;;;5064786;28;20247;-63
2024/04/04 05:14:29;;;;;;;1.60;0.80;;;13.40;99.90;;;;;;5062717;28;20629;-63
2024/04/04 05:16:56;;;;;;;1.70;0.70;;;13.40;99.90;;;;;;5061092;28;20202;-63
2024/04/04 05:19:21;;;;;;;1.93;0.90;;;13.40;99.90;;;;;;5061617;28;20584;-63
2024/04/04 05:21:48;;;;;;;2.47;0.70;;;13.40;99.90;;;;;;5064518;28;20266;-63
2024/04/04 05:24:15;;;;;;;2.50;0.90;;;13.60;99.90;;;;;;5064653;28;20274;-63
2024/04/04 05:26:42;;;;;;;2.17;1.30;;;13.70;99.90;;;;;;5064613;28;20291;-64
2024/04/04 05:29:07;;;;;;;2.70;1.80;;;13.70;99.90;;;;;;5064137;28;20232;-63
2024/04/04 05:31:34;;;;;;;1.97;1.10;;;13.80;99.90;;;;;;5061726;28;20606;-60
2024/04/04 05:34:00;;;;;;;2.30;1.00;;;13.80;99.90;;;;;;5060896;28;20308;-60
2024/04/04 05:36:27;;;;;;;2.17;0.80;;;14.00;99.90;;;;;;5062301;28;20223;-60
2024/04/04 05:38:53;;;;;;;1.73;0.80;;;14.00;99.90;;;;;;5063953;28;20229;-60
2024/04/04 05:41:21;;;;;;;2.03;0.70;;;14.10;99.90;;;;;;5063611;28;20197;-60
2024/04/04 05:43:46;;;;;;;3.10;0.90;;;14.20;99.90;;;;;;5060730;28;20213;-61
2024/04/04 05:46:13;;;;;;;2.57;0.87;;;14.30;99.90;;;;;;5060450;28;20637;-60
2024/04/04 05:48:39;;;;;;;3.90;0.80;;;14.40;99.90;;;;;;5063311;28;20212;-61
2024/04/04 05:51:06;;;;;;;1.80;0.90;;;14.40;99.90;;;;;;5064041;28;20663;-62
2024/04/04 05:53:31;;;;;;;2.90;0.80;;;14.40;99.90;;;;;;5061765;28;20208;-60
2024/04/04 05:55:58;;;;;;;2.53;0.80;;;14.40;99.90;;;;;;5060508;28;20574;-60
2024/04/04 05:58:25;;;;;;;2.00;0.80;;;14.60;99.90;;;;;;5061040;28;20202;-61
2024/04/04 06:00:52;;;;;;;1.93;0.83;;;14.80;99.90;;;;;;5064061;28;20231;-61
2024/04/04 06:03:18;;;;;;;3.30;1.15;;;14.90;99.90;;;;;;5063524;28;20209;-60
2024/04/04 06:05:44;;;;;;;5.27;2.53;;;14.90;99.90;;;;;;5060207;28;20312;-60
2024/04/04 06:08:10;;;;;;;2.63;1.20;;;14.90;99.90;;;;;;5059999;28;20216;-61
2024/04/04 06:10:37;;;;;;;2.00;0.60;;;15.10;99.90;;;;;;5062256;28;20605;-61
2024/04/04 06:13:04;;;;;;;1.33;0.63;;;15.10;99.90;;;;;;5063671;28;20206;-60
2024/04/04 06:15:32;;;;;;;1.60;0.77;;;15.20;99.90;;;;;;5062019;28;20200;-61
2024/04/04 06:17:58;;;;;;;3.07;0.67;;;15.20;99.90;;;;;;5060083;28;20232;-61
2024/04/04 06:20:24;;;;;;;2.77;1.10;;;15.30;99.90;;;;;;5060887;28;20217;-63
2024/04/04 06:22:50;;;;;;;1.05;0.52;;;15.30;99.90;;;;;;5063377;28;20197;-61
2024/04/04 06:25:17;;;;;;;1.90;0.90;;;15.40;99.90;;;;;;5063266;28;20200;-61
2024/04/04 06:27:43;;;;;;;2.33;0.77;;;15.40;99.90;;;;;;5063056;28;20303;-61
2024/04/04 06:30:11;;;;;;;3.08;0.93;;;16.50;99.90;;;;;;5063590;28;20221;-62
2024/04/04 06:32:38;;;;;;;2.97;1.33;;;18.20;99.90;;;;;;5060432;28;20697;-61
2024/04/04 06:35:05;;;;;;;2.42;0.98;;;18.90;99.90;;;;;;5059514;28;20741;-62
2024/04/04 06:37:31;;;;;;;2.90;1.02;;;18.90;99.90;;;;;;5061254;28;20729;-61
2024/04/04 06:39:58;;;;;;;4.03;1.00;;;18.70;99.90;;;;;;5063252;28;20217;-61
2024/04/04 06:42:24;;;;;;;2.80;0.93;;;18.40;99.90;;;;;;5061989;28;20262;-61
2024/04/04 06:44:51;;;;;;;3.08;1.05;;;18.20;99.90;;;;;;5059784;28;20615;-62
2024/04/04 06:47:16;;;;;;;2.60;0.98;;;18.10;99.90;;;;;;5059465;28;20233;-61
2024/04/04 06:49:44;;;;;;;3.05;1.02;;;18.10;99.90;;;;;;5062199;28;20231;-61
2024/04/04 06:52:10;;;;;;;2.33;0.80;;;18.20;99.90;;;;;;5063004;28;20201;-61
2024/04/04 06:54:37;;;;;;;4.82;1.63;;;19.30;99.90;;;;;;5061116;28;20284;-61
2024/04/04 06:57:03;;;;;;;2.83;1.00;;;20.80;99.90;;;;;;5059519;28;20208;-61
2024/04/04 06:59:30;;;;;;;8.52;1.50;;;22.30;99.90;;;;;;5061142;28;20611;-61
2024/04/04 07:01:55;;;;;;;2.50;1.08;;;23.70;99.90;;;;;;5063423;28;20235;-61
2024/04/04 07:04:22;;;;;;;1.33;0.68;;;24.40;99.90;;;;;;5062690;28;20670;-61
2024/04/04 07:06:49;;;;;;;6.00;1.50;;;24.30;99.90;;;;;;5059748;28;20218;-62
2024/04/04 07:09:16;;;;;;;4.40;1.63;;;23.80;99.90;;;;;;5059343;28;20245;-61
2024/04/04 07:11:42;;;;;;;3.15;1.20;;;23.40;99.90;;;;;;5062640;28;20300;-61
2024/04/04 07:14:09;;;;;;;3.22;1.33;;;23.30;99.90;;;;;;5062979;28;20477;-61
2024/04/04 07:16:34;;;;;;;2.45;1.20;;;23.30;99.90;;;;;;5060612;28;20689;-62
2024/04/04 07:19:01;;;;;;;3.22;1.58;;;23.60;99.90;;;;;;5059534;28;20221;-61
2024/04/04 07:21:27;;;;;;;5.85;1.48;;;24.00;99.90;;;;;;5060688;28;20201;-60
2024/04/04 07:23:55;;;;;;;2.80;1.65;;;24.30;99.90;;;;;;5065300;28;20224;-61
2024/04/04 07:26:20;;;;;;;4.53;1.30;;;24.90;99.80;;;;;;5066233;28;20651;-60
2024/04/04 07:28:47;;;;;;;6.55;1.30;;;25.60;98.40;;;;;;5063270;28;20198;-61
2024/04/04 07:31:13;;;;;;;6.60;1.45;;;26.40;96.70;;;;;;5063468;28;20208;-62
2024/04/04 07:33:39;;;;;;;4.50;1.55;;;27.00;94.90;;;;;;5065679;28;20604;-60
2024/04/04 07:36:06;;;;;;;3.13;1.27;;;26.90;94.40;;;;;;5066677;28;20208;-60
2024/04/04 07:38:33;;;;;;;4.05;1.25;;;26.60;94.20;;;;;;5064574;28;20192;-60
2024/04/04 07:41:05;;;;;;;2.40;1.05;;;26.40;94.10;;;;;;5063310;28;20213;-60
2024/04/04 07:43:32;;;;;;;4.35;1.23;;;25.80;94.40;;;;;;5064526;28;20205;-61
2024/04/04 07:46:00;;;;;;;7.35;1.17;;;25.00;95.40;;;;;;5066521;28;20240;-60
2024/04/04 07:48:27;;;;;;;8.35;1.65;;;24.10;96.10;;;;;;5065165;28;20288;-60
2024/04/04 07:50:53;;;;;;;4.18;1.52;;;23.40;97.10;;;;;;5063098;28;20225;-61
2024/04/04 07:53:19;;;;;;;4.57;1.45;;;22.70;97.90;;;;;;5063352;28;20288;-61
2024/04/04 07:55:45;;;;;;;4.47;1.40;;;22.00;98.40;;;;;;5063518;28;20205;-60
2024/04/04 07:58:13;;;;;;;4.70;1.55;;;21.50;99.40;;;;;;5063633;28;20197;-60
2024/04/04 08:00:40;;;;;;;4.85;1.73;;;21.00;99.90;;;;;;5065757;28;20229;-60
2024/04/04 08:03:07;;;;;;;5.50;1.70;;;20.40;99.90;;;;;;5066241;28;20211;-61
2024/04/04 08:05:32;;;;;;;4.10;1.27;;;20.00;99.90;;;;;;5063957;28;20291;-60
2024/04/04 08:07:59;;;;;;;3.63;1.40;;;19.70;99.90;;;;;;5062342;28;20388;-60
2024/04/04 08:10:26;;;;;;;8.07;1.73;;;19.30;99.90;;;;;;5063142;28;20294;-60
2024/04/04 08:12:52;;;;;;;3.65;1.40;;;19.00;99.90;;;;;;5065926;28;20197;-61
2024/04/04 08:15:19;;;;;;;4.07;1.23;;;18.90;99.90;;;;;;5065780;28;20205;-60
2024/04/04 08:17:47;;;;;;;6.75;1.60;;;18.70;99.90;;;;;;5062152;28;20259;-60
2024/04/04 08:20:14;;;;;;;5.57;1.60;;;18.60;99.90;;;;;;5062328;28;20221;-60
2024/04/04 08:22:41;;;;;;;2.70;1.27;;;18.60;99.90;;;;;;5064932;28;20212;-62
2024/04/04 08:25:07;;;;;;;6.50;1.50;;;18.80;99.90;;;;;;5066343;28;20201;-61
2024/04/04 08:27:34;;;;;;;4.68;1.52;;;19.00;99.90;;;;;;5063736;28;20240;-64
2024/04/04 08:29:59;;;;;;;3.85;1.63;;;19.10;99.90;;;;;;5062223;28;20255;-65
2024/04/04 08:32:28;;;;;;;11.38;1.85;;;19.10;99.90;;;;;;5062902;28;20229;-61
2024/04/04 08:34:54;;;;;;;4.95;1.70;;;18.80;99.90;;;;;;5064867;28;20256;-61
2024/04/04 08:37:20;;;;;;;7.05;1.70;;;18.70;99.90;;;;;;5065672;28;20610;-61
2024/04/04 08:39:46;;;;;;;4.63;1.60;;;18.50;99.90;;;;;;5061906;28;20229;-63
2024/04/04 08:42:13;;;;;;;6.38;2.83;;;18.30;99.90;;;;;;5061967;28;20557;-63
2024/04/04 08:44:40;;;;;;;6.55;1.08;;;18.20;99.90;;;;;;5064243;28;20213;-60
2024/04/04 08:47:10;;;;;;;5.88;1.42;;;18.30;99.90;;;;;;5065717;28;20220;-63
2024/04/04 08:49:39;;;;;;;4.25;1.20;;;18.40;99.90;;;;;;5062444;28;20235;-63
2024/04/04 08:52:07;;;;;;;3.85;1.30;;;18.50;99.90;;;;;;5061564;28;20248;-61
2024/04/04 08:54:35;;;;;;;4.82;1.15;;;18.50;99.90;;;;;;5063016;28;20698;-61
2024/04/04 08:57:02;;;;;;;2.88;1.00;;;18.40;99.90;;;;;;5065078;28;20200;-62
2024/04/04 08:59:29;;;;;;;4.18;1.27;;;18.40;99.90;;;;;;5064066;28;20224;-61
2024/04/04 09:01:54;;;;;;;6.55;1.60;;;18.30;99.90;;;;;;5061426;28;20198;-63
2024/04/04 09:04:24;;;;;;;6.72;1.52;;;18.30;99.90;;;;;;5061423;28;20204;-61
2024/04/04 09:06:51;;;;;;;4.35;1.35;;;18.30;99.90;;;;;;5061961;28;20256;-61
2024/04/04 09:09:18;;;;;;;3.30;1.20;;;18.20;99.90;;;;;;5061435;28;20217;-61
2024/04/04 09:11:44;;;;;;;6.85;1.17;;;18.20;99.90;;;;;;5064095;28;20582;-61
2024/04/04 09:14:11;;;;;;;3.25;1.30;;;18.20;99.90;;;;;;5064565;28;20250;-61
2024/04/04 09:16:36;;;;;;;5.85;1.08;;;18.20;99.90;;;;;;5062526;28;20666;-61
2024/04/04 09:19:13;;;;;;;3.90;1.48;;;18.20;99.90;;;;;;5060783;28;20226;-60
2024/04/04 09:21:39;;;;;;;5.65;1.80;;;18.30;99.90;;;;;;5063255;28;20249;-62
2024/04/04 09:24:09;;;;;;;4.40;1.02;;;18.30;99.90;;;;;;5064668;28;20576;-61
2024/04/04 09:26:36;;;;;;;6.63;1.95;;;18.20;99.90;;;;;;5062930;28;20268;-63
2024/04/04 09:29:04;;;;;;;6.28;2.40;;;18.10;99.90;;;;;;5056041;28;20224;-63
2024/04/04 09:31:32;;;;;;;9.98;1.75;;;18.30;99.90;;;;;;5063444;28;20629;-61
2024/04/04 09:34:00;;;;;;;6.72;1.90;;;18.40;99.90;;;;;;5063402;28;20586;-63
2024/04/04 09:36:29;;;;;;;4.60;1.27;;;18.50;99.90;;;;;;5062333;28;20235;-62
2024/04/04 09:38:57;;;;;;;6.15;1.90;;;18.60;99.90;;;;;;5064942;28;20251;-63
2024/04/04 09:41:24;;;;;;;3.50;1.30;;;18.70;99.90;;;;;;5066154;28;20201;-65
2024/04/04 09:43:56;;;;;;;5.20;1.63;;;18.80;99.90;;;;;;5064222;28;20858;-64
2024/04/04 09:46:22;;;;;;;7.40;1.20;;;19.00;99.90;;;;;;5063062;28;20605;-63
2024/04/04 09:48:50;;;;;;;5.30;1.50;;;19.10;99.90;;;;;;5060161;28;20284;-65
2024/04/04 09:51:18;;;;;;;4.47;1.42;;;19.00;99.90;;;;;;5061142;28;20206;-65
2024/04/04 09:53:44;;;;;;;5.10;1.45;;;18.90;99.90;;;;;;5062811;28;20672;-65
2024/04/04 09:56:13;;;;;;;4.38;1.35;;;18.80;99.90;;;;;;5063741;28;20193;-66
2024/04/04 09:58:42;;;;;;;6.18;1.77;;;18.80;99.90;;;;;;5061443;28;20200;-63
2024/04/04 10:01:20;;;;;;;5.40;1.70;;;19.00;99.90;;;;;;5066686;28;20204;-67
2024/04/04 10:03:57;;;;;;;6.32;1.85;;;19.00;99.90;;;;;;5060590;28;20213;-67
2024/04/04 10:06:35;;;;;;;6.78;2.28;;;19.10;99.90;;;;;;5059846;28;20221;-67
2024/04/04 10:09:13;;;;;;;4.72;1.30;;;19.10;99.90;;;;;;5059989;28;20642;-67
2024/04/04 10:11:40;;;;;;;4.80;1.50;;;19.20;99.90;;;;;;5061930;28;20300;-67
2024/04/04 10:14:12;;;;;;;4.00;1.20;;;19.20;99.90;;;;;;5063513;28;20208;-66
2024/04/04 10:16:39;;;;;;;3.28;1.23;;;19.10;99.90;;;;;;5061623;28;20209;-66
2024/04/04 10:19:12;;;;;;;5.95;1.52;;;19.10;99.90;;;;;;5059669;28;20255;-67
2024/04/04 10:21:39;;;;;;;7.50;1.70;;;19.10;99.90;;;;;;5061812;28;20206;-67
2024/04/04 10:24:06;;;;;;;7.90;1.63;;;19.10;99.90;;;;;;5063714;28;20205;-68
2024/04/04 10:26:33;;;;;;;4.05;1.17;;;19.00;99.90;;;;;;5062270;28;20648;-67
2024/04/04 10:28:59;;;;;;;4.40;2.55;;;18.90;99.90;;;;;;5059654;28;20225;-64
2024/04/04 10:31:27;;;;;;;4.07;1.40;;;19.00;99.90;;;;;;5059745;28;20202;-64
2024/04/04 10:34:03;;;;;;;6.47;1.48;;;18.80;99.90;;;;;;5063486;28;20203;-64
2024/04/04 10:36:41;;;;;;;5.78;1.70;;;18.70;99.90;;;;;;5062850;28;20262;-65
2024/04/04 10:39:09;;;;;;;3.78;1.40;;;18.60;99.90;;;;;;5059789;28;20224;-64
2024/04/04 10:41:37;;;;;;;3.67;1.42;;;18.60;99.90;;;;;;5061224;28;20663;-64
2024/04/04 10:44:11;;;;;;;6.57;1.83;;;18.60;99.90;;;;;;5063092;28;20201;-64
2024/04/04 10:46:47;;;;;;;3.58;1.35;;;18.60;99.90;;;;;;5061784;28;20309;-64
2024/04/04 10:49:14;;;;;;;5.88;1.92;;;18.60;99.90;;;;;;5059544;28;20243;-64
2024/04/04 10:51:47;;;;;;;6.47;1.70;;;18.50;99.90;;;;;;5061848;28;20320;-65
2024/04/04 10:54:13;;;;;;;3.60;1.27;;;18.50;99.90;;;;;;5063493;28;20200;-63
2024/04/04 10:56:40;;;;;;;3.65;1.27;;;18.40;99.90;;;;;;5061719;28;20203;-64
2024/04/04 10:59:06;;;;;;;3.40;1.20;;;18.50;99.90;;;;;;5063924;28;20225;-63
2024/04/04 11:01:33;;;;;;;3.58;1.63;;;18.60;99.90;;;;;;5064730;28;20201;-64
2024/04/04 11:04:00;;;;;;;3.53;1.80;;;18.60;99.90;;;;;;5067311;28;20208;-63
2024/04/04 11:06:28;;;;;;;2.40;1.00;;;18.60;99.90;;;;;;5066461;28;20273;-64
2024/04/04 11:08:54;;;;;;;4.40;1.33;;;18.70;99.90;;;;;;5063340;28;20251;-64
2024/04/04 11:11:23;;;;;;;5.05;1.45;;;18.80;99.90;;;;;;5063891;28;20255;-64
2024/04/04 11:13:49;;;;;;;3.33;1.10;;;18.80;99.90;;;;;;5066674;28;20263;-64
2024/04/04 11:16:16;;;;;;;3.58;1.35;;;18.80;99.90;;;;;;5067114;28;20652;-63
2024/04/04 11:18:43;;;;;;;4.70;1.40;;;18.70;99.90;;;;;;5064301;28;20315;-64
2024/04/04 11:21:11;;;;;;;4.22;1.13;;;18.70;99.90;;;;;;5063458;28;20202;-65
2024/04/04 11:23:37;;;;;;;3.65;1.10;;;18.60;99.90;;;;;;5064632;28;20243;-65
2024/04/04 11:26:04;;;;;;;3.83;1.30;;;18.40;99.90;;;;;;5067178;28;20197;-64
2024/04/04 11:28:30;;;;;;;5.05;1.25;;;18.20;99.90;;;;;;5065902;28;20270;-64
2024/04/04 11:30:56;;;;;;;2.97;1.13;;;18.30;99.90;;;;;;5063263;28;20217;-63
2024/04/04 11:33:22;;;;;;;5.93;1.80;;;18.30;99.90;;;;;;5063451;28;20209;-65
2024/04/04 11:35:49;;;;;;;4.82;2.50;;;18.50;99.90;;;;;;5066123;28;20197;-64
2024/04/04 11:38:16;;;;;;;3.47;1.52;;;18.60;99.90;;;;;;5065992;28;20194;-64
2024/04/04 11:40:43;;;;;;;3.13;1.50;;;18.80;99.90;;;;;;5064463;28;20316;-65
2024/04/04 11:43:09;;;;;;;2.63;1.92;;;18.90;99.90;;;;;;5063275;28;20202;-67
2024/04/04 11:45:36;;;;;;;4.30;1.45;;;19.00;99.90;;;;;;5064311;28;20201;-64
2024/04/04 11:48:03;;;;;;;3.13;1.20;;;19.00;99.90;;;;;;5066197;28;20645;-63
2024/04/04 11:50:31;;;;;;;4.40;1.15;;;19.10;99.90;;;;;;5066000;28;20227;-60
2024/04/04 11:52:58;;;;;;;2.83;1.38;;;19.10;99.90;;;;;;5062652;28;20297;-60
2024/04/04 11:55:26;;;;;;;5.47;1.85;;;19.10;99.90;;;;;;5062771;28;20197;-59
2024/04/04 11:57:52;;;;;;;7.43;3.50;;;19.00;99.90;;;;;;5065934;28;20247;-59
2024/04/04 12:00:20;;;;;;;3.25;1.60;;;18.90;99.90;;;;;;5065993;28;20649;-60
2024/04/04 12:02:45;;;;;;;6.13;2.70;;;18.80;99.90;;;;;;5063401;28;20212;-59
2024/04/04 12:05:12;;;;;;;2.78;1.25;;;18.60;99.90;;;;;;5062618;28;20204;-59
2024/04/04 12:07:38;;;;;;;3.63;1.55;;;18.50;99.90;;;;;;5063342;28;20297;-60
2024/04/04 12:10:06;;;;;;;4.82;1.70;;;18.50;99.90;;;;;;5064827;28;20583;-59
2024/04/04 12:12:33;;;;;;;3.40;1.30;;;18.60;99.90;;;;;;5065239;28;20627;-60
2024/04/04 12:15:00;;;;;;;5.00;1.15;;;18.70;99.90;;;;;;5062244;28;20212;-60
2024/04/04 12:17:25;;;;;;;3.10;1.20;;;18.70;99.90;;;;;;5062076;28;20682;-60
2024/04/04 12:19:51;;;;;;;4.47;1.45;;;18.80;99.90;;;;;;5065154;28;20304;-58
2024/04/04 12:22:18;;;;;;;6.60;1.30;;;18.70;99.90;;;;;;5065728;28;20197;-60
2024/04/04 12:24:44;;;;;;;3.90;1.30;;;18.70;99.90;;;;;;5063296;28;20204;-60
2024/04/04 12:27:11;;;;;;;3.42;1.10;;;18.70;99.90;;;;;;5062113;28;20268;-58
2024/04/04 12:29:38;;;;;;;5.05;1.30;;;18.70;99.90;;;;;;5063005;28;20221;-60
2024/04/04 12:32:05;;;;;;;5.05;2.38;;;18.80;99.90;;;;;;5065421;28;20684;-58
2024/04/04 12:34:31;;;;;;;4.20;1.55;;;18.80;99.90;;;;;;5064802;28;20201;-59
2024/04/04 12:36:58;;;;;;;3.65;1.45;;;19.00;99.90;;;;;;5062262;28;20196;-59
2024/04/04 12:39:24;;;;;;;4.72;2.60;;;18.90;99.90;;;;;;5061826;28;20222;-59
2024/04/04 12:41:51;;;;;;;3.63;1.20;;;18.90;99.90;;;;;;5064720;28;20205;-59
2024/04/04 12:44:18;;;;;;;3.30;1.10;;;18.60;99.90;;;;;;5065622;28;20208;-59
2024/04/04 12:46:47;;;;;;;2.97;1.55;;;18.50;99.90;;;;;;5062800;28;20221;-60